Time;durP1;ratioP1;P1;durP2;ratioP2;P2;SDS_P1;SDS_P2;PMS_P1;PMS_P2;Temp;Humidity;BMP_temperature;BMP_pressure;BME280_temperature;BME280_humidity;BME280_pressure;Samples;Min_cycle;Max_cycle;Signal;HPM_P1;HPM_P2
2023/03/14 00:00:08;;;;;;;11.52;3.22;;;;;;;;;;6298420;22;20028;-83
2023/03/14 00:02:35;;;;;;;14.68;3.60;;;;;;;;;;6298316;22;20028;-83
2023/03/14 00:05:06;;;;;;;13.27;3.33;;;;;;;;;;6296700;22;20143;-83
2023/03/14 00:07:34;;;;;;;15.25;4.20;;;;;;;;;;6297893;22;20891;-83
2023/03/14 00:10:04;;;;;;;16.42;3.05;;;;;;;;;;6269349;22;20034;-83
2023/03/14 00:12:30;;;;;;;16.67;3.10;;;;;;;;;;6297714;22;20019;-83
2023/03/14 00:14:57;;;;;;;16.75;3.67;;;;;;;;;;6296031;22;21123;-83
2023/03/14 00:17:23;;;;;;;12.68;3.15;;;;;;;;;;6270485;22;20051;-84
2023/03/14 00:19:52;;;;;;;17.38;3.10;;;;;;;;;;6269471;22;20024;-83
2023/03/14 00:22:18;;;;;;;15.10;3.08;;;;;;;;;;6269974;22;20071;-82
2023/03/14 00:24:45;;;;;;;13.27;2.95;;;;;;;;;;6294834;22;20020;-83
2023/03/14 00:27:11;;;;;;;11.88;2.55;;;;;;;;;;6297293;22;20030;-83
2023/03/14 00:29:37;;;;;;;14.38;2.13;;;;;;;;;;6270154;22;20031;-83
2023/03/14 00:32:04;;;;;;;14.38;2.35;;;;;;;;;;6296721;22;21081;-83
2023/03/14 00:34:31;;;;;;;17.88;2.42;;;;;;;;;;6296856;22;20023;-83
2023/03/14 00:36:57;;;;;;;12.25;2.97;;;;;;;;;;6296591;22;20540;-83
2023/03/14 00:39:23;;;;;;;10.52;2.47;;;;;;;;;;6296603;22;20032;-83
2023/03/14 00:41:50;;;;;;;15.48;2.53;;;;;;;;;;6296382;22;20028;-83
2023/03/14 00:44:16;;;;;;;12.68;2.25;;;;;;;;;;6296824;22;21003;-83
2023/03/14 00:46:43;;;;;;;12.23;2.15;;;;;;;;;;6296870;22;20031;-83
2023/03/14 00:49:09;;;;;;;11.15;2.22;;;;;;;;;;6297300;22;20933;-83
2023/03/14 00:51:35;;;;;;;15.80;2.47;;;;;;;;;;6298595;22;20062;-83
2023/03/14 00:54:02;;;;;;;8.82;1.80;;;;;;;;;;6296439;22;20908;-83
2023/03/14 00:56:28;;;;;;;6.22;1.45;;;;;;;;;;6299676;22;20023;-84
2023/03/14 00:58:55;;;;;;;10.55;1.95;;;;;;;;;;6296663;22;20672;-83
2023/03/14 01:01:22;;;;;;;8.50;1.60;;;;;;;;;;6297266;22;20024;-84
2023/03/14 01:03:53;;;;;;;13.65;1.85;;;;;;;;;;6297123;22;20453;-83
2023/03/14 01:06:20;;;;;;;14.93;2.13;;;;;;;;;;6296721;22;20023;-83
2023/03/14 01:08:47;;;;;;;9.93;2.08;;;;;;;;;;6296944;22;20031;-83
2023/03/14 01:11:15;;;;;;;11.77;1.88;;;;;;;;;;6296333;22;20024;-83
2023/03/14 01:13:42;;;;;;;8.43;1.60;;;;;;;;;;6295456;22;20773;-83
2023/03/14 01:16:09;;;;;;;10.05;1.95;;;;;;;;;;6295560;22;20134;-84
2023/03/14 01:18:36;;;;;;;11.05;1.65;;;;;;;;;;6297917;22;20060;-84
2023/03/14 01:21:04;;;;;;;7.63;1.35;;;;;;;;;;6297883;22;20038;-84
2023/03/14 01:23:30;;;;;;;7.18;1.40;;;;;;;;;;6267938;22;20019;-83
2023/03/14 01:25:56;;;;;;;6.97;1.45;;;;;;;;;;6295362;22;20019;-84
2023/03/14 01:28:24;;;;;;;8.50;1.67;;;;;;;;;;6297345;22;20027;-84
2023/03/14 01:30:50;;;;;;;8.85;1.40;;;;;;;;;;6298412;22;20032;-84
2023/03/14 01:33:17;;;;;;;9.95;1.67;;;;;;;;;;6269278;22;20026;-84
2023/03/14 01:35:43;;;;;;;12.63;2.10;;;;;;;;;;6297460;22;20023;-84
2023/03/14 01:38:10;;;;;;;9.35;1.73;;;;;;;;;;6297951;22;20023;-85
2023/03/14 01:40:43;;;;;;;8.38;1.85;;;;;;;;;;6296604;22;20900;-84
2023/03/14 01:43:14;;;;;;;8.40;1.80;;;;;;;;;;6295962;22;20458;-85
2023/03/14 01:46:00;;;;;;;6.43;1.40;;;;;;;;;;6269109;22;20028;-85
2023/03/14 01:48:28;;;;;;;8.55;1.88;;;;;;;;;;6270527;22;20482;-85
2023/03/14 01:50:54;;;;;;;8.52;1.70;;;;;;;;;;6297797;22;20024;-84
2023/03/14 01:53:21;;;;;;;12.98;1.98;;;;;;;;;;6295634;22;20471;-84
2023/03/14 01:55:49;;;;;;;9.93;1.33;;;;;;;;;;6269544;22;20028;-84
2023/03/14 01:58:16;;;;;;;10.88;1.50;;;;;;;;;;6296930;22;20030;-85
2023/03/14 02:00:42;;;;;;;9.82;1.55;;;;;;;;;;6270072;22;20024;-84
2023/03/14 02:03:16;;;;;;;13.18;1.52;;;;;;;;;;6296632;22;20028;-84
2023/03/14 02:05:43;;;;;;;9.82;1.67;;;;;;;;;;6268741;22;20034;-84
2023/03/14 02:08:12;;;;;;;12.27;1.60;;;;;;;;;;6296357;22;20546;-84
2023/03/14 02:10:41;;;;;;;9.38;1.40;;;;;;;;;;6296685;22;20082;-84
2023/03/14 02:13:08;;;;;;;7.03;1.60;;;;;;;;;;6296146;22;20016;-84
2023/03/14 02:15:35;;;;;;;12.45;1.65;;;;;;;;;;6296199;22;20032;-84
2023/03/14 02:18:02;;;;;;;8.68;1.67;;;;;;;;;;6297055;22;20018;-84
2023/03/14 02:20:48;;;;;;;9.88;1.65;;;;;;;;;;6296380;22;20102;-85
2023/03/14 02:23:16;;;;;;;6.13;1.35;;;;;;;;;;6296735;22;20472;-85
2023/03/14 02:25:43;;;;;;;9.32;1.60;;;;;;;;;;6268791;22;21225;-84
2023/03/14 02:28:10;;;;;;;9.32;1.50;;;;;;;;;;6270409;22;20109;-84
2023/03/14 02:30:36;;;;;;;9.82;1.90;;;;;;;;;;6271105;22;20030;-84
2023/03/14 02:33:04;;;;;;;8.30;1.60;;;;;;;;;;6276504;22;20124;-84
2023/03/14 02:35:36;;;;;;;13.05;2.17;;;;;;;;;;6305320;22;20052;-84
2023/03/14 02:38:21;;;;;;;14.00;2.30;;;;;;;;;;6304595;22;20071;-84
2023/03/14 02:40:48;;;;;;;8.52;2.10;;;;;;;;;;6306710;22;20020;-84
2023/03/14 02:43:14;;;;;;;14.43;2.50;;;;;;;;;;6305894;22;20058;-85
2023/03/14 02:45:43;;;;;;;14.45;2.65;;;;;;;;;;6310548;22;20019;-85
2023/03/14 02:48:25;;;;;;;11.73;2.42;;;;;;;;;;6309360;22;20011;-84
2023/03/14 02:50:56;;;;;;;6.65;2.20;;;;;;;;;;6278898;22;20835;-84
2023/03/14 02:53:33;;;;;;;10.80;2.53;;;;;;;;;;6307072;22;20062;-84
2023/03/14 02:55:59;;;;;;;11.05;2.63;;;;;;;;;;6307344;22;20023;-84
2023/03/14 02:58:26;;;;;;;12.50;2.17;;;;;;;;;;6278730;22;20018;-85
2023/03/14 03:00:52;;;;;;;10.98;2.88;;;;;;;;;;6307323;22;20030;-84
2023/03/14 03:03:19;;;;;;;11.57;2.33;;;;;;;;;;6304704;22;20075;-84
2023/03/14 03:05:50;;;;;;;11.52;2.50;;;;;;;;;;6306673;22;20024;-84
2023/03/14 03:08:17;;;;;;;8.70;2.70;;;;;;;;;;6277773;22;20030;-84
2023/03/14 03:10:43;;;;;;;8.05;2.45;;;;;;;;;;6305973;22;21395;-84
2023/03/14 03:13:10;;;;;;;6.00;2.10;;;;;;;;;;6305036;22;20429;-84
2023/03/14 03:15:36;;;;;;;10.68;2.50;;;;;;;;;;6306514;22;20971;-84
2023/03/14 03:18:02;;;;;;;6.72;2.10;;;;;;;;;;6306528;22;20027;-84
2023/03/14 03:20:29;;;;;;;11.75;2.38;;;;;;;;;;6305593;22;20895;-84
2023/03/14 03:22:56;;;;;;;12.02;2.47;;;;;;;;;;6301728;22;20042;-83
2023/03/14 03:25:22;;;;;;;11.05;2.25;;;;;;;;;;6303312;22;20030;-84
2023/03/14 03:27:48;;;;;;;10.68;2.30;;;;;;;;;;6277070;22;20020;-84
2023/03/14 03:30:15;;;;;;;12.95;2.05;;;;;;;;;;6305632;22;20015;-84
2023/03/14 03:32:41;;;;;;;12.52;2.08;;;;;;;;;;6306501;22;20110;-84
2023/03/14 03:35:08;;;;;;;6.63;1.95;;;;;;;;;;6304081;22;20048;-85
2023/03/14 03:37:34;;;;;;;12.93;2.22;;;;;;;;;;6278633;22;20327;-84
2023/03/14 03:40:03;;;;;;;10.48;1.83;;;;;;;;;;6306200;22;20019;-84
2023/03/14 03:42:29;;;;;;;12.45;2.15;;;;;;;;;;6303089;22;20793;-84
2023/03/14 03:44:56;;;;;;;10.07;2.50;;;;;;;;;;6303048;22;20023;-84
2023/03/14 03:47:22;;;;;;;11.38;2.20;;;;;;;;;;6305770;22;20030;-84
2023/03/14 03:49:49;;;;;;;8.43;2.00;;;;;;;;;;6305403;22;20103;-84
2023/03/14 03:52:15;;;;;;;6.32;1.67;;;;;;;;;;6276945;22;20030;-84
2023/03/14 03:54:41;;;;;;;9.05;1.80;;;;;;;;;;6302244;22;20832;-84
2023/03/14 03:57:08;;;;;;;9.57;2.00;;;;;;;;;;6305271;22;20058;-85
2023/03/14 03:59:34;;;;;;;10.10;1.88;;;;;;;;;;6305711;22;20561;-84
2023/03/14 04:02:01;;;;;;;9.45;2.08;;;;;;;;;;6305504;22;20027;-84
2023/03/14 04:04:28;;;;;;;8.00;2.00;;;;;;;;;;6303372;22;20020;-84
2023/03/14 04:06:54;;;;;;;11.65;1.85;;;;;;;;;;6304432;22;20078;-84
2023/03/14 04:09:21;;;;;;;5.10;1.55;;;;;;;;;;6276796;22;20047;-84
2023/03/14 04:11:47;;;;;;;10.55;2.00;;;;;;;;;;6304405;22;20016;-84
2023/03/14 04:14:14;;;;;;;7.38;2.20;;;;;;;;;;6303234;22;20024;-84
2023/03/14 04:16:40;;;;;;;16.45;2.05;;;;;;;;;;6276190;22;20695;-85
2023/03/14 04:19:07;;;;;;;14.25;2.00;;;;;;;;;;6303247;22;20027;-84
2023/03/14 04:21:33;;;;;;;8.95;1.80;;;;;;;;;;6303285;22;20651;-84
2023/03/14 04:23:59;;;;;;;10.93;2.15;;;;;;;;;;6302125;22;20027;-84
2023/03/14 04:26:26;;;;;;;9.52;2.10;;;;;;;;;;6303743;22;20468;-84
2023/03/14 04:28:52;;;;;;;9.88;1.95;;;;;;;;;;6302840;22;20008;-84
2023/03/14 04:31:20;;;;;;;8.00;1.90;;;;;;;;;;6303692;22;20417;-83
2023/03/14 04:33:47;;;;;;;11.75;2.22;;;;;;;;;;6303806;22;20032;-84
2023/03/14 04:36:13;;;;;;;7.57;1.83;;;;;;;;;;6302348;22;20020;-83
2023/03/14 04:38:40;;;;;;;15.40;2.10;;;;;;;;;;6304855;22;20024;-84
2023/03/14 04:41:06;;;;;;;10.57;2.00;;;;;;;;;;6303352;22;20036;-84
2023/03/14 04:43:33;;;;;;;12.68;2.08;;;;;;;;;;6304446;22;20055;-84
2023/03/14 04:45:59;;;;;;;11.32;2.10;;;;;;;;;;6302654;22;20094;-84
2023/03/14 04:48:26;;;;;;;9.05;2.10;;;;;;;;;;6275713;22;20635;-84
2023/03/14 04:50:52;;;;;;;8.23;1.70;;;;;;;;;;6304454;22;20043;-83
2023/03/14 04:53:19;;;;;;;13.13;2.47;;;;;;;;;;6302368;22;20023;-83
2023/03/14 04:55:52;;;;;;;10.65;1.70;;;;;;;;;;6303038;22;20486;-83
2023/03/14 04:58:19;;;;;;;7.45;1.70;;;;;;;;;;6301074;22;20412;-84
2023/03/14 05:00:46;;;;;;;8.13;1.75;;;;;;;;;;6303669;22;20066;-83
2023/03/14 05:03:14;;;;;;;7.68;2.53;;;;;;;;;;6302509;22;20111;-83
2023/03/14 05:05:41;;;;;;;8.45;2.10;;;;;;;;;;6274357;22;20035;-84
2023/03/14 05:08:07;;;;;;;6.95;1.80;;;;;;;;;;6303407;22;20062;-84
2023/03/14 05:10:34;;;;;;;8.25;2.33;;;;;;;;;;6300772;22;20026;-85
2023/03/14 05:13:00;;;;;;;13.52;2.00;;;;;;;;;;6308013;22;20218;-85
2023/03/14 05:15:27;;;;;;;7.40;1.83;;;;;;;;;;6274063;22;20522;-86
2023/03/14 05:17:54;;;;;;;8.15;2.03;;;;;;;;;;6302908;22;20024;-85
2023/03/14 05:20:20;;;;;;;12.23;2.03;;;;;;;;;;6274235;22;20094;-87
2023/03/14 05:22:47;;;;;;;12.52;2.28;;;;;;;;;;6299112;22;20026;-87
2023/03/14 05:25:13;;;;;;;10.93;2.53;;;;;;;;;;6299709;22;20020;-87
2023/03/14 05:27:40;;;;;;;9.93;2.38;;;;;;;;;;6299730;22;20480;-88
2023/03/14 05:30:06;;;;;;;9.20;2.50;;;;;;;;;;6273167;22;20044;-88
2023/03/14 05:32:33;;;;;;;6.10;1.98;;;;;;;;;;6300649;22;20095;-88
2023/03/14 05:34:59;;;;;;;11.05;2.47;;;;;;;;;;6299545;22;20032;-87
2023/03/14 05:37:26;;;;;;;9.82;2.90;;;;;;;;;;6299815;22;20024;-88
2023/03/14 05:39:52;;;;;;;13.25;2.88;;;;;;;;;;6299037;22;20023;-88
2023/03/14 05:42:19;;;;;;;10.40;2.95;;;;;;;;;;6298177;22;20047;-88
2023/03/14 05:44:45;;;;;;;12.32;2.42;;;;;;;;;;6296777;22;20629;-88
2023/03/14 05:47:11;;;;;;;13.18;3.25;;;;;;;;;;6297915;22;20448;-88
2023/03/14 05:49:38;;;;;;;9.38;3.03;;;;;;;;;;6297805;22;20074;-87
2023/03/14 05:52:05;;;;;;;18.17;3.85;;;;;;;;;;6298068;22;20047;-87
2023/03/14 05:54:31;;;;;;;12.90;2.85;;;;;;;;;;6299169;22;20023;-86
2023/03/14 05:56:57;;;;;;;9.27;3.30;;;;;;;;;;6299220;22;20026;-85
2023/03/14 05:59:24;;;;;;;10.43;3.67;;;;;;;;;;6300054;22;20027;-85
2023/03/14 06:01:50;;;;;;;8.38;3.08;;;;;;;;;;6301205;22;20094;-86
2023/03/14 06:04:17;;;;;;;9.98;3.42;;;;;;;;;;6300508;22;20403;-86
2023/03/14 06:06:43;;;;;;;12.00;3.88;;;;;;;;;;6301341;22;20452;-86
2023/03/14 06:09:09;;;;;;;12.85;4.03;;;;;;;;;;6299809;22;20024;-82
2023/03/14 06:11:38;;;;;;;12.45;3.90;;;;;;;;;;6299891;22;20035;-83
2023/03/14 06:14:05;;;;;;;12.00;3.90;;;;;;;;;;6271874;22;20062;-85
2023/03/14 06:16:31;;;;;;;10.77;3.90;;;;;;;;;;6270790;22;20043;-85
2023/03/14 06:18:58;;;;;;;13.45;3.45;;;;;;;;;;6272229;22;20046;-86
2023/03/14 06:21:25;;;;;;;11.70;4.25;;;;;;;;;;6271730;22;20042;-86
2023/03/14 06:23:54;;;;;;;14.07;4.15;;;;;;;;;;6298467;22;20081;-85
2023/03/14 06:26:21;;;;;;;12.07;4.28;;;;;;;;;;6302204;22;20031;-86
2023/03/14 06:28:47;;;;;;;12.63;4.50;;;;;;;;;;6271980;22;20019;-85
2023/03/14 06:31:14;;;;;;;11.63;5.07;;;;;;;;;;6299825;22;20036;-85
2023/03/14 06:33:40;;;;;;;14.93;4.53;;;;;;;;;;6298626;22;20101;-85
2023/03/14 06:36:07;;;;;;;11.55;5.10;;;;;;;;;;6298041;22;20472;-86
2023/03/14 06:38:33;;;;;;;14.15;5.10;;;;;;;;;;6298630;22;20030;-86
2023/03/14 06:41:04;;;;;;;16.33;5.22;;;;;;;;;;6296552;22;20122;-86
2023/03/14 06:43:30;;;;;;;20.77;5.70;;;;;;;;;;6269253;22;20049;-87
2023/03/14 06:45:56;;;;;;;18.17;5.70;;;;;;;;;;6271943;22;20023;-86
2023/03/14 06:48:26;;;;;;;12.20;3.60;;;;;;;;;;6271949;22;20026;-87
2023/03/14 06:50:55;;;;;;;6.70;2.95;;;;;;;;;;6299152;22;20031;-85
2023/03/14 06:53:21;;;;;;;5.07;1.73;;;;;;;;;;6297146;22;20030;-85
2023/03/14 06:55:47;;;;;;;4.57;1.10;;;;;;;;;;6298235;22;20027;-85
2023/03/14 06:58:14;;;;;;;2.42;0.80;;;;;;;;;;6298501;22;20031;-84
2023/03/14 07:00:42;;;;;;;3.67;0.80;;;;;;;;;;6298905;22;20055;-84
2023/03/14 07:03:10;;;;;;;2.30;0.60;;;;;;;;;;6270296;22;20028;-85
2023/03/14 07:05:40;;;;;;;8.30;1.00;;;;;;;;;;6298662;22;20023;-82
2023/03/14 07:08:07;;;;;;;3.70;1.05;;;;;;;;;;6271679;22;20033;-83
2023/03/14 07:10:33;;;;;;;4.78;0.88;;;;;;;;;;6271502;22;20034;-82
2023/03/14 07:13:00;;;;;;;3.65;0.90;;;;;;;;;;6299323;22;20028;-83
2023/03/14 07:15:26;;;;;;;3.28;0.90;;;;;;;;;;6299592;22;20023;-83
2023/03/14 07:17:52;;;;;;;3.85;1.10;;;;;;;;;;6298966;22;20034;-83
2023/03/14 07:20:19;;;;;;;4.45;1.00;;;;;;;;;;6299818;22;20028;-82
2023/03/14 07:22:49;;;;;;;4.97;1.30;;;;;;;;;;6297607;22;20062;-83
2023/03/14 07:25:15;;;;;;;4.07;1.30;;;;;;;;;;6297360;22;20101;-83
2023/03/14 07:27:45;;;;;;;4.63;1.60;;;;;;;;;;6297933;22;20247;-82
2023/03/14 07:30:12;;;;;;;7.70;1.98;;;;;;;;;;6299830;22;20030;-83
2023/03/14 07:32:38;;;;;;;5.22;1.45;;;;;;;;;;6301972;22;20062;-82
2023/03/14 07:35:05;;;;;;;5.47;1.60;;;;;;;;;;6298331;22;20031;-81
2023/03/14 07:37:32;;;;;;;7.63;1.98;;;;;;;;;;6299142;22;20026;-82
2023/03/14 07:39:58;;;;;;;4.38;1.63;;;;;;;;;;6298192;22;20027;-82
2023/03/14 07:42:24;;;;;;;4.55;1.83;;;;;;;;;;6298950;22;20042;-82
2023/03/14 07:44:51;;;;;;;3.85;1.30;;;;;;;;;;6296695;22;20104;-82
2023/03/14 07:47:17;;;;;;;6.03;1.50;;;;;;;;;;6298909;22;20023;-81
2023/03/14 07:49:43;;;;;;;4.15;1.27;;;;;;;;;;6297891;22;20055;-81
2023/03/14 07:52:09;;;;;;;3.20;1.10;;;;;;;;;;6298869;22;20028;-82
2023/03/14 07:54:36;;;;;;;3.80;1.00;;;;;;;;;;6298786;22;20069;-82
2023/03/14 07:57:03;;;;;;;3.80;0.75;;;;;;;;;;6297126;22;20024;-81
2023/03/14 07:59:30;;;;;;;5.07;0.80;;;;;;;;;;6298139;22;20107;-82
2023/03/14 08:01:56;;;;;;;3.65;1.02;;;;;;;;;;6270728;22;20027;-81
2023/03/14 08:04:22;;;;;;;3.67;1.10;;;;;;;;;;6269516;22;20047;-81
2023/03/14 08:06:49;;;;;;;7.03;1.45;;;;;;;;;;6269549;22;20066;-83
2023/03/14 08:09:15;;;;;;;4.25;1.30;;;;;;;;;;6298452;22;20026;-82
2023/03/14 08:11:42;;;;;;;6.35;0.77;;;;;;;;;;6300394;22;20066;-81
2023/03/14 08:14:08;;;;;;;7.28;1.10;;;;;;;;;;6296292;22;20173;-81
2023/03/14 08:16:35;;;;;;;2.95;0.80;;;;;;;;;;6270670;22;20425;-81
2023/03/14 08:19:01;;;;;;;9.23;1.17;;;;;;;;;;6297163;22;20024;-82
2023/03/14 08:21:28;;;;;;;8.20;1.10;;;;;;;;;;6296050;22;20798;-81
2023/03/14 08:23:54;;;;;;;7.60;1.02;;;;;;;;;;6295902;22;20939;-81
2023/03/14 08:26:20;;;;;;;5.13;0.95;;;;;;;;;;6296614;22;20038;-81
2023/03/14 08:28:47;;;;;;;7.28;1.20;;;;;;;;;;6296294;22;20020;-81
2023/03/14 08:31:14;;;;;;;10.23;0.95;;;;;;;;;;6270168;22;20055;-82
2023/03/14 08:33:41;;;;;;;4.90;0.70;;;;;;;;;;6295567;22;20024;-81
2023/03/14 08:36:07;;;;;;;8.38;1.48;;;;;;;;;;6270216;22;20047;-81
2023/03/14 08:38:34;;;;;;;9.88;1.15;;;;;;;;;;6298058;22;20115;-81
2023/03/14 08:41:01;;;;;;;5.63;0.70;;;;;;;;;;6297050;22;20134;-80
2023/03/14 08:43:28;;;;;;;4.35;0.77;;;;;;;;;;6296774;22;20056;-81
2023/03/14 08:45:57;;;;;;;3.25;0.65;;;;;;;;;;6269161;22;20110;-81
2023/03/14 08:48:23;;;;;;;3.75;0.80;;;;;;;;;;6297248;22;20846;-80
2023/03/14 08:50:50;;;;;;;4.38;0.52;;;;;;;;;;6298101;22;20055;-81
2023/03/14 08:53:16;;;;;;;4.63;0.50;;;;;;;;;;6294100;22;20020;-81
2023/03/14 08:55:43;;;;;;;4.93;0.70;;;;;;;;;;6295813;22;20057;-81
2023/03/14 08:58:09;;;;;;;2.60;0.40;;;;;;;;;;6269868;22;20431;-82
2023/03/14 09:00:36;;;;;;;4.55;0.82;;;;;;;;;;6270645;22;20054;-82
2023/03/14 09:03:02;;;;;;;6.10;0.73;;;;;;;;;;6270045;22;20885;-82
2023/03/14 09:05:32;;;;;;;5.15;0.85;;;;;;;;;;6297558;22;20023;-82
2023/03/14 09:07:58;;;;;;;6.75;0.90;;;;;;;;;;6297966;22;20864;-82
2023/03/14 09:10:24;;;;;;;9.98;0.93;;;;;;;;;;6299563;22;20023;-82
2023/03/14 09:12:51;;;;;;;7.57;0.88;;;;;;;;;;6275111;22;20019;-84
2023/03/14 09:15:32;;;;;;;7.90;1.10;;;;;;;;;;6299624;22;20122;-84
2023/03/14 09:18:01;;;;;;;6.03;1.10;;;;;;;;;;6287984;22;20103;-84
2023/03/14 09:20:27;;;;;;;12.80;1.55;;;;;;;;;;6272906;22;20028;-84
2023/03/14 09:30:55;;;;;;;8.10;2.00;;;;;;;;;;6175260;22;21160;-86
2023/03/14 09:42:30;;;;;;;9.85;1.77;;;;;;;;;;6208391;22;20115;-86
2023/03/14 09:45:10;;;;;;;11.02;1.70;;;;;;;;;;6278777;22;20071;-85
2023/03/14 09:47:50;;;;;;;8.00;1.30;;;;;;;;;;6266766;22;20035;-85
2023/03/14 09:50:26;;;;;;;12.80;1.75;;;;;;;;;;6273148;22;20024;-85
2023/03/14 09:52:56;;;;;;;15.88;2.97;;;;;;;;;;6271243;22;20020;-86
2023/03/14 09:55:22;;;;;;;13.48;2.03;;;;;;;;;;6272581;22;20047;-84
2023/03/14 09:57:50;;;;;;;6.20;1.45;;;;;;;;;;6271939;22;20051;-86
2023/03/14 10:00:18;;;;;;;11.90;1.40;;;;;;;;;;6273024;22;20016;-87
2023/03/14 10:02:49;;;;;;;9.73;1.73;;;;;;;;;;6296163;22;20016;-86
2023/03/14 10:05:18;;;;;;;14.43;2.15;;;;;;;;;;6271834;22;20052;-86
2023/03/14 10:07:45;;;;;;;12.75;1.85;;;;;;;;;;6273987;22;20270;-87
2023/03/14 10:10:21;;;;;;;19.85;2.38;;;;;;;;;;6271030;22;20106;-86
2023/03/14 10:12:54;;;;;;;13.55;2.35;;;;;;;;;;6268703;22;20023;-86
2023/03/14 10:15:29;;;;;;;14.55;2.65;;;;;;;;;;6271036;22;20062;-87
2023/03/14 10:17:58;;;;;;;20.27;2.47;;;;;;;;;;6268579;22;20028;-86
2023/03/14 10:20:57;;;;;;;11.15;2.30;;;;;;;;;;6268279;22;20035;-87
2023/03/14 10:23:31;;;;;;;13.10;1.92;;;;;;;;;;6216879;22;20103;-86
2023/03/14 10:26:08;;;;;;;11.60;1.55;;;;;;;;;;6267880;22;20495;-86
2023/03/14 10:28:39;;;;;;;13.45;1.80;;;;;;;;;;6266726;22;20027;-86
2023/03/14 10:31:06;;;;;;;15.65;2.08;;;;;;;;;;6266583;22;20083;-84
2023/03/14 10:33:35;;;;;;;16.13;1.90;;;;;;;;;;6266548;22;20099;-85
2023/03/14 10:36:01;;;;;;;15.13;2.47;;;;;;;;;;6267663;22;20032;-84
2023/03/14 10:38:29;;;;;;;9.25;1.52;;;;;;;;;;6266879;22;20024;-85
2023/03/14 10:40:59;;;;;;;17.08;2.28;;;;;;;;;;6266714;22;20062;-83
2023/03/14 10:43:27;;;;;;;11.70;2.03;;;;;;;;;;6266722;22;20700;-83
2023/03/14 10:45:57;;;;;;;12.27;2.45;;;;;;;;;;6266647;22;20028;-83
2023/03/14 10:48:24;;;;;;;;;;;;;;;;;;6267506;22;20111;-83
2023/03/14 10:50:53;;;;;;;17.67;2.47;;;;;;;;;;6265504;22;45594;-83
2023/03/14 10:53:20;;;;;;;20.05;2.25;;;;;;;;;;6266534;22;20027;-83
2023/03/14 10:55:46;;;;;;;19.88;2.92;;;;;;;;;;6266421;22;20024;-83
2023/03/14 10:58:19;;;;;;;13.50;2.40;;;;;;;;;;6239941;22;20060;-83
2023/03/14 11:00:50;;;;;;;16.35;2.25;;;;;;;;;;6240193;22;20083;-83
2023/03/14 11:03:17;;;;;;;11.85;2.00;;;;;;;;;;6266378;22;20095;-83
2023/03/14 11:05:44;;;;;;;22.35;2.80;;;;;;;;;;6240512;22;20028;-84
2023/03/14 11:08:18;;;;;;;14.98;2.30;;;;;;;;;;6239925;22;20024;-84
2023/03/14 11:10:48;;;;;;;16.30;2.33;;;;;;;;;;6268189;22;20064;-83
2023/03/14 11:13:20;;;;;;;20.48;2.80;;;;;;;;;;6239212;22;20024;-84
2023/03/14 11:15:49;;;;;;;17.25;3.28;;;;;;;;;;6238119;22;20020;-89
2023/03/14 11:18:24;;;;;;;16.48;2.28;;;;;;;;;;6267749;22;20456;-84
2023/03/14 11:21:11;;;;;;;15.93;2.35;;;;;;;;;;6268314;22;20447;-84
2023/03/14 11:23:43;;;;;;;24.30;2.30;;;;;;;;;;6266578;22;20677;-84
2023/03/14 11:26:29;;;;;;;11.25;1.90;;;;;;;;;;6267039;22;20590;-84
2023/03/14 11:28:57;;;;;;;11.63;2.22;;;;;;;;;;6267575;22;20032;-84
2023/03/14 11:31:26;;;;;;;19.30;2.47;;;;;;;;;;6267045;22;20047;-84
2023/03/14 11:34:02;;;;;;;18.17;2.40;;;;;;;;;;6266800;22;20020;-83
2023/03/14 11:36:37;;;;;;;11.85;2.10;;;;;;;;;;6240420;22;20028;-84
2023/03/14 11:39:07;;;;;;;22.58;2.67;;;;;;;;;;6267749;22;20032;-84
2023/03/14 11:41:39;;;;;;;10.95;1.80;;;;;;;;;;6269478;22;20034;-84
2023/03/14 11:44:32;;;;;;;16.20;2.70;;;;;;;;;;6266304;22;20024;-86
2023/03/14 11:47:14;;;;;;;13.23;1.67;;;;;;;;;;6262023;22;20847;-87
2023/03/14 11:49:47;;;;;;;14.52;1.83;;;;;;;;;;6266515;22;20912;-87
2023/03/14 11:52:25;;;;;;;14.65;2.30;;;;;;;;;;6266910;22;20136;-86
2023/03/14 11:54:55;;;;;;;13.23;1.88;;;;;;;;;;6264905;22;20032;-86
2023/03/14 11:57:22;;;;;;;18.00;3.05;;;;;;;;;;6268048;22;20020;-87
2023/03/14 12:00:10;;;;;;;19.55;2.25;;;;;;;;;;6240066;22;20032;-84
2023/03/14 12:02:45;;;;;;;12.20;1.83;;;;;;;;;;6266785;22;20020;-84
2023/03/14 12:05:28;;;;;;;19.13;1.80;;;;;;;;;;6240090;22;20385;-87
2023/03/14 12:07:54;;;;;;;12.77;1.73;;;;;;;;;;6267366;22;20028;-87
2023/03/14 12:10:22;;;;;;;8.55;1.20;;;;;;;;;;6267324;22;20026;-87
2023/03/14 12:12:49;;;;;;;18.77;1.50;;;;;;;;;;6264540;22;20082;-86
2023/03/14 12:15:20;;;;;;;6.43;1.02;;;;;;;;;;6265959;22;20024;-87
2023/03/14 12:17:47;;;;;;;13.30;1.90;;;;;;;;;;6240270;22;20021;-87
2023/03/14 12:20:18;;;;;;;10.38;1.67;;;;;;;;;;6267298;22;20038;-88
2023/03/14 12:22:47;;;;;;;9.30;1.50;;;;;;;;;;6265543;22;20095;-83
2023/03/14 12:25:19;;;;;;;15.30;1.63;;;;;;;;;;6266800;22;20020;-84
2023/03/14 12:27:54;;;;;;;8.15;1.52;;;;;;;;;;6239738;22;20028;-84
2023/03/14 12:30:28;;;;;;;6.97;1.30;;;;;;;;;;6266573;22;20935;-84
2023/03/14 12:33:10;;;;;;;7.25;1.10;;;;;;;;;;6239681;22;20024;-86
2023/03/14 12:35:41;;;;;;;9.90;1.27;;;;;;;;;;6242849;22;20035;-86
2023/03/14 12:38:12;;;;;;;11.63;1.75;;;;;;;;;;6267267;22;20528;-86
2023/03/14 12:40:50;;;;;;;8.68;1.40;;;;;;;;;;6267089;22;20492;-86
2023/03/14 12:43:30;;;;;;;12.60;1.67;;;;;;;;;;6266619;22;20020;-87
2023/03/14 12:46:09;;;;;;;7.37;1.23;;;;;;;;;;6265618;22;20031;-86
2023/03/14 12:48:37;;;;;;;9.10;1.40;;;;;;;;;;6268306;22;20032;-86
2023/03/14 12:51:11;;;;;;;10.75;1.52;;;;;;;;;;6267415;22;20962;-86
2023/03/14 12:53:41;;;;;;;11.18;1.40;;;;;;;;;;6266910;22;20156;-85
2023/03/14 12:56:16;;;;;;;7.22;1.10;;;;;;;;;;6266965;22;20388;-86
2023/03/14 12:58:49;;;;;;;7.78;1.63;;;;;;;;;;6267356;22;20019;-86
2023/03/14 13:01:16;;;;;;;7.82;1.85;;;;;;;;;;6268224;22;20151;-87
2023/03/14 13:03:48;;;;;;;6.55;1.15;;;;;;;;;;6265491;22;20079;-86
2023/03/14 13:06:35;;;;;;;7.18;1.42;;;;;;;;;;6267473;22;20078;-86
2023/03/14 13:09:21;;;;;;;4.63;1.10;;;;;;;;;;6239978;22;20043;-86
2023/03/14 13:11:47;;;;;;;6.63;1.17;;;;;;;;;;6266584;22;20099;-86
2023/03/14 13:14:14;;;;;;;10.30;1.58;;;;;;;;;;6238516;22;20020;-87
2023/03/14 13:16:41;;;;;;;8.20;1.10;;;;;;;;;;6267442;22;20490;-87
2023/03/14 13:19:22;;;;;;;10.48;1.27;;;;;;;;;;6266561;22;20695;-87
2023/03/14 13:21:49;;;;;;;5.78;1.40;;;;;;;;;;6266648;22;20127;-86
2023/03/14 13:24:24;;;;;;;11.02;2.58;;;;;;;;;;6264841;22;20028;-87
2023/03/14 13:26:54;;;;;;;7.45;1.88;;;;;;;;;;6267650;22;20030;-86
2023/03/14 13:29:23;;;;;;;6.67;1.10;;;;;;;;;;6240782;22;20028;-87
2023/03/14 13:31:53;;;;;;;10.18;1.05;;;;;;;;;;6267533;22;20223;-86
2023/03/14 13:34:20;;;;;;;6.45;0.90;;;;;;;;;;6266158;22;20059;-87
2023/03/14 13:36:49;;;;;;;7.38;0.80;;;;;;;;;;6239258;22;20388;-86
2023/03/14 13:39:33;;;;;;;6.97;1.08;;;;;;;;;;6266663;22;20861;-86
2023/03/14 13:42:00;;;;;;;7.10;1.05;;;;;;;;;;6264444;22;20463;-86
2023/03/14 13:44:26;;;;;;;8.45;1.20;;;;;;;;;;6264685;22;20028;-86
2023/03/14 13:46:57;;;;;;;9.60;1.40;;;;;;;;;;6264921;22;20509;-86
2023/03/14 13:49:24;;;;;;;8.55;1.23;;;;;;;;;;6266723;22;20032;-86
2023/03/14 13:51:51;;;;;;;6.25;1.20;;;;;;;;;;6267155;22;20025;-86
2023/03/14 13:54:18;;;;;;;6.47;0.70;;;;;;;;;;6267009;22;20035;-84
2023/03/14 13:56:45;;;;;;;7.72;1.00;;;;;;;;;;6266325;22;20102;-83
2023/03/14 13:59:21;;;;;;;5.72;1.25;;;;;;;;;;6266517;22;20091;-83
2023/03/14 14:01:48;;;;;;;11.73;2.40;;;;;;;;;;6266843;22;20511;-84
2023/03/14 14:04:16;;;;;;;8.70;1.63;;;;;;;;;;6237807;22;20032;-83
2023/03/14 14:06:47;;;;;;;5.90;1.38;;;;;;;;;;6266980;22;20028;-83
2023/03/14 14:09:18;;;;;;;6.65;1.50;;;;;;;;;;6240283;22;20028;-83
2023/03/14 14:11:48;;;;;;;5.75;1.10;;;;;;;;;;6269426;22;20020;-86
2023/03/14 14:14:37;;;;;;;9.90;1.02;;;;;;;;;;6265741;22;20028;-84
2023/03/14 14:17:08;;;;;;;7.35;1.52;;;;;;;;;;6266137;22;20113;-84
2023/03/14 14:19:36;;;;;;;8.02;1.77;;;;;;;;;;6238466;22;20020;-84
2023/03/14 14:22:02;;;;;;;8.50;1.58;;;;;;;;;;6266117;22;20031;-83
2023/03/14 14:24:31;;;;;;;9.25;1.83;;;;;;;;;;6265041;22;20032;-83
2023/03/14 14:27:10;;;;;;;7.30;1.80;;;;;;;;;;6265647;22;20032;-83
2023/03/14 14:29:36;;;;;;;7.85;1.50;;;;;;;;;;6266227;22;20860;-83
2023/03/14 14:32:10;;;;;;;11.30;1.85;;;;;;;;;;6267193;22;20060;-83
2023/03/14 14:34:48;;;;;;;7.82;1.33;;;;;;;;;;6238566;22;20115;-83
2023/03/14 14:37:18;;;;;;;10.65;1.38;;;;;;;;;;6265766;22;20064;-83
2023/03/14 14:39:44;;;;;;;9.25;1.42;;;;;;;;;;6239829;22;20028;-84
2023/03/14 14:42:15;;;;;;;12.95;1.58;;;;;;;;;;6267658;22;20024;-84
2023/03/14 14:44:42;;;;;;;6.47;1.20;;;;;;;;;;6248224;22;20028;-84
2023/03/14 14:47:12;;;;;;;8.95;1.25;;;;;;;;;;6267908;22;20024;-84
2023/03/14 14:49:39;;;;;;;5.10;1.00;;;;;;;;;;6267665;22;20103;-84
2023/03/14 14:52:11;;;;;;;10.48;2.05;;;;;;;;;;6268335;22;20021;-84
2023/03/14 14:54:42;;;;;;;10.85;1.80;;;;;;;;;;6267099;22;20027;-84
2023/03/14 14:57:28;;;;;;;12.82;2.35;;;;;;;;;;6269151;22;20511;-84
2023/03/14 14:59:55;;;;;;;8.50;1.70;;;;;;;;;;6277865;22;20028;-84
2023/03/14 15:02:25;;;;;;;13.50;1.95;;;;;;;;;;6277872;22;20027;-84